sensor_id;sensor_type;location;lat;lon;timestamp;temperature;humidity
54124;DHT22;55741;53.252;5.788;2024-03-08T00:00:45;2.00;99.90
54124;DHT22;55741;53.252;5.788;2024-03-08T00:03:12;2.00;99.90
54124;DHT22;55741;53.252;5.788;2024-03-08T00:05:39;2.00;99.90
54124;DHT22;55741;53.252;5.788;2024-03-08T00:08:06;2.00;99.90
54124;DHT22;55741;53.252;5.788;2024-03-08T00:10:38;2.00;99.90
54124;DHT22;55741;53.252;5.788;2024-03-08T00:13:05;2.00;99.90
54124;DHT22;55741;53.252;5.788;2024-03-08T00:15:33;1.90;99.90
54124;DHT22;55741;53.252;5.788;2024-03-08T00:18:00;1.90;99.90
54124;DHT22;55741;53.252;5.788;2024-03-08T00:20:27;1.90;99.90
54124;DHT22;55741;53.252;5.788;2024-03-08T00:22:54;1.90;99.90
54124;DHT22;55741;53.252;5.788;2024-03-08T00:25:24;1.90;99.90
54124;DHT22;55741;53.252;5.788;2024-03-08T00:27:51;1.90;99.90
54124;DHT22;55741;53.252;5.788;2024-03-08T00:30:23;1.90;99.90
54124;DHT22;55741;53.252;5.788;2024-03-08T00:32:51;1.90;99.90
54124;DHT22;55741;53.252;5.788;2024-03-08T00:35:18;1.80;99.90
54124;DHT22;55741;53.252;5.788;2024-03-08T00:37:45;1.80;99.90
54124;DHT22;55741;53.252;5.788;2024-03-08T00:40:16;1.80;99.90
54124;DHT22;55741;53.252;5.788;2024-03-08T00:42:43;1.80;99.90
54124;DHT22;55741;53.252;5.788;2024-03-08T00:45:11;1.80;99.90
54124;DHT22;55741;53.252;5.788;2024-03-08T00:47:38;1.80;99.90
54124;DHT22;55741;53.252;5.788;2024-03-08T00:50:05;1.80;99.90
54124;DHT22;55741;53.252;5.788;2024-03-08T00:52:32;1.80;99.90
54124;DHT22;55741;53.252;5.788;2024-03-08T00:55:01;1.80;99.90
54124;DHT22;55741;53.252;5.788;2024-03-08T00:57:28;1.80;99.90
54124;DHT22;55741;53.252;5.788;2024-03-08T00:59:56;1.80;99.90
54124;DHT22;55741;53.252;5.788;2024-03-08T01:02:23;1.70;99.90
54124;DHT22;55741;53.252;5.788;2024-03-08T01:04:50;1.70;99.90
54124;DHT22;55741;53.252;5.788;2024-03-08T01:07:17;1.70;99.90
54124;DHT22;55741;53.252;5.788;2024-03-08T01:09:44;1.80;99.90
54124;DHT22;55741;53.252;5.788;2024-03-08T01:12:13;1.70;99.90
54124;DHT22;55741;53.252;5.788;2024-03-08T01:14:40;1.70;99.90
54124;DHT22;55741;53.252;5.788;2024-03-08T01:17:07;1.70;99.90
54124;DHT22;55741;53.252;5.788;2024-03-08T01:19:34;1.70;99.90
54124;DHT22;55741;53.252;5.788;2024-03-08T01:22:01;1.70;99.90
54124;DHT22;55741;53.252;5.788;2024-03-08T01:24:28;1.70;99.90
54124;DHT22;55741;53.252;5.788;2024-03-08T01:26:55;1.70;99.90
54124;DHT22;55741;53.252;5.788;2024-03-08T01:29:22;1.70;99.90
54124;DHT22;55741;53.252;5.788;2024-03-08T01:31:49;1.70;99.90
54124;DHT22;55741;53.252;5.788;2024-03-08T01:34:19;1.70;99.90
54124;DHT22;55741;53.252;5.788;2024-03-08T01:36:46;1.70;99.90
54124;DHT22;55741;53.252;5.788;2024-03-08T01:39:13;1.60;99.90
54124;DHT22;55741;53.252;5.788;2024-03-08T01:41:40;1.60;99.90
54124;DHT22;55741;53.252;5.788;2024-03-08T01:44:07;1.60;99.90
54124;DHT22;55741;53.252;5.788;2024-03-08T01:46:35;1.60;99.90
54124;DHT22;55741;53.252;5.788;2024-03-08T01:49:02;1.60;99.90
54124;DHT22;55741;53.252;5.788;2024-03-08T01:51:30;1.60;99.90
54124;DHT22;55741;53.252;5.788;2024-03-08T01:53:58;1.60;99.90
54124;DHT22;55741;53.252;5.788;2024-03-08T01:56:26;1.60;99.90
54124;DHT22;55741;53.252;5.788;2024-03-08T01:58:54;1.60;99.90
54124;DHT22;55741;53.252;5.788;2024-03-08T02:01:21;1.50;99.90
54124;DHT22;55741;53.252;5.788;2024-03-08T02:03:49;1.50;99.90
54124;DHT22;55741;53.252;5.788;2024-03-08T02:06:16;1.60;99.90
54124;DHT22;55741;53.252;5.788;2024-03-08T02:08:44;1.50;99.90
54124;DHT22;55741;53.252;5.788;2024-03-08T02:11:12;1.50;99.90
54124;DHT22;55741;53.252;5.788;2024-03-08T02:13:41;1.50;99.90
54124;DHT22;55741;53.252;5.788;2024-03-08T02:16:08;1.50;99.90
54124;DHT22;55741;53.252;5.788;2024-03-08T02:18:36;1.50;99.90
54124;DHT22;55741;53.252;5.788;2024-03-08T02:21:04;1.50;99.90
54124;DHT22;55741;53.252;5.788;2024-03-08T02:23:32;1.40;99.90
54124;DHT22;55741;53.252;5.788;2024-03-08T02:25:59;1.40;99.90
54124;DHT22;55741;53.252;5.788;2024-03-08T02:28:26;1.40;99.90
54124;DHT22;55741;53.252;5.788;2024-03-08T02:30:53;1.40;99.90
54124;DHT22;55741;53.252;5.788;2024-03-08T02:33:23;1.40;99.90
54124;DHT22;55741;53.252;5.788;2024-03-08T02:35:51;1.30;99.90
54124;DHT22;55741;53.252;5.788;2024-03-08T02:38:19;1.40;99.90
54124;DHT22;55741;53.252;5.788;2024-03-08T02:40:48;1.40;99.90
54124;DHT22;55741;53.252;5.788;2024-03-08T02:43:17;1.30;99.90
54124;DHT22;55741;53.252;5.788;2024-03-08T02:45:48;1.30;99.90
54124;DHT22;55741;53.252;5.788;2024-03-08T02:48:16;1.30;99.90
54124;DHT22;55741;53.252;5.788;2024-03-08T02:50:43;1.30;99.90
54124;DHT22;55741;53.252;5.788;2024-03-08T02:53:11;1.30;99.90
54124;DHT22;55741;53.252;5.788;2024-03-08T02:55:39;1.30;99.90
54124;DHT22;55741;53.252;5.788;2024-03-08T02:58:08;1.30;99.90
54124;DHT22;55741;53.252;5.788;2024-03-08T03:00:37;1.20;99.90
54124;DHT22;55741;53.252;5.788;2024-03-08T03:03:05;1.20;99.90
54124;DHT22;55741;53.252;5.788;2024-03-08T03:05:33;1.20;99.90
54124;DHT22;55741;53.252;5.788;2024-03-08T03:08:03;1.30;99.90
54124;DHT22;55741;53.252;5.788;2024-03-08T03:10:35;1.20;99.90
54124;DHT22;55741;53.252;5.788;2024-03-08T03:13:03;1.20;99.90
54124;DHT22;55741;53.252;5.788;2024-03-08T03:15:33;1.20;99.90
54124;DHT22;55741;53.252;5.788;2024-03-08T03:18:00;1.20;99.90
54124;DHT22;55741;53.252;5.788;2024-03-08T03:20:28;1.20;99.90
54124;DHT22;55741;53.252;5.788;2024-03-08T03:22:59;1.20;99.90
54124;DHT22;55741;53.252;5.788;2024-03-08T03:25:28;1.20;99.90
54124;DHT22;55741;53.252;5.788;2024-03-08T03:28:02;1.20;99.90
54124;DHT22;55741;53.252;5.788;2024-03-08T03:30:31;1.20;99.90
54124;DHT22;55741;53.252;5.788;2024-03-08T03:33:00;1.20;99.90
54124;DHT22;55741;53.252;5.788;2024-03-08T03:35:28;1.20;99.90
54124;DHT22;55741;53.252;5.788;2024-03-08T03:37:56;1.20;99.90
54124;DHT22;55741;53.252;5.788;2024-03-08T03:40:33;1.20;99.90
54124;DHT22;55741;53.252;5.788;2024-03-08T03:43:01;1.10;99.90
54124;DHT22;55741;53.252;5.788;2024-03-08T03:45:30;1.10;99.90
54124;DHT22;55741;53.252;5.788;2024-03-08T03:48:05;1.10;99.90
54124;DHT22;55741;53.252;5.788;2024-03-08T03:50:33;1.10;99.90
54124;DHT22;55741;53.252;5.788;2024-03-08T03:53:04;1.10;99.90
54124;DHT22;55741;53.252;5.788;2024-03-08T03:55:31;1.10;99.90
54124;DHT22;55741;53.252;5.788;2024-03-08T03:57:58;1.10;99.90
54124;DHT22;55741;53.252;5.788;2024-03-08T04:00:27;1.10;99.90
54124;DHT22;55741;53.252;5.788;2024-03-08T04:02:55;1.10;99.90
54124;DHT22;55741;53.252;5.788;2024-03-08T04:05:25;1.10;99.90
54124;DHT22;55741;53.252;5.788;2024-03-08T04:07:52;1.00;99.90
54124;DHT22;55741;53.252;5.788;2024-03-08T04:10:20;1.10;99.90
54124;DHT22;55741;53.252;5.788;2024-03-08T04:12:47;1.10;99.90
54124;DHT22;55741;53.252;5.788;2024-03-08T04:15:14;1.10;99.90
54124;DHT22;55741;53.252;5.788;2024-03-08T04:17:43;1.10;99.90
54124;DHT22;55741;53.252;5.788;2024-03-08T04:20:12;1.10;99.90
54124;DHT22;55741;53.252;5.788;2024-03-08T04:22:41;1.10;99.90
54124;DHT22;55741;53.252;5.788;2024-03-08T04:25:08;1.10;99.90
54124;DHT22;55741;53.252;5.788;2024-03-08T04:27:36;1.00;99.90
54124;DHT22;55741;53.252;5.788;2024-03-08T04:30:03;1.00;99.90
54124;DHT22;55741;53.252;5.788;2024-03-08T04:32:30;1.00;99.90
54124;DHT22;55741;53.252;5.788;2024-03-08T04:34:59;1.00;99.90
54124;DHT22;55741;53.252;5.788;2024-03-08T04:37:28;1.00;99.90
54124;DHT22;55741;53.252;5.788;2024-03-08T04:39:57;1.00;99.90
54124;DHT22;55741;53.252;5.788;2024-03-08T04:42:24;1.00;99.90
54124;DHT22;55741;53.252;5.788;2024-03-08T04:44:51;1.00;99.90
54124;DHT22;55741;53.252;5.788;2024-03-08T04:47:20;1.00;99.90
54124;DHT22;55741;53.252;5.788;2024-03-08T04:49:47;1.00;99.90
54124;DHT22;55741;53.252;5.788;2024-03-08T04:52:14;0.90;99.90
54124;DHT22;55741;53.252;5.788;2024-03-08T04:54:41;0.90;99.90
54124;DHT22;55741;53.252;5.788;2024-03-08T04:57:08;0.90;99.90
54124;DHT22;55741;53.252;5.788;2024-03-08T04:59:35;0.90;99.90
54124;DHT22;55741;53.252;5.788;2024-03-08T05:02:03;0.90;99.90
54124;DHT22;55741;53.252;5.788;2024-03-08T05:04:30;0.90;99.90
54124;DHT22;55741;53.252;5.788;2024-03-08T05:06:57;0.90;99.90
54124;DHT22;55741;53.252;5.788;2024-03-08T05:09:24;0.90;99.90
54124;DHT22;55741;53.252;5.788;2024-03-08T05:11:51;0.90;99.90
54124;DHT22;55741;53.252;5.788;2024-03-08T05:14:18;0.90;99.90
54124;DHT22;55741;53.252;5.788;2024-03-08T05:16:47;0.90;99.90
54124;DHT22;55741;53.252;5.788;2024-03-08T05:19:19;0.80;99.90
54124;DHT22;55741;53.252;5.788;2024-03-08T05:21:47;0.90;99.90
54124;DHT22;55741;53.252;5.788;2024-03-08T05:24:14;0.80;99.90
54124;DHT22;55741;53.252;5.788;2024-03-08T05:26:42;0.80;99.90
54124;DHT22;55741;53.252;5.788;2024-03-08T05:29:10;0.80;99.90
54124;DHT22;55741;53.252;5.788;2024-03-08T05:31:48;0.80;99.90
54124;DHT22;55741;53.252;5.788;2024-03-08T05:34:16;0.80;99.90
54124;DHT22;55741;53.252;5.788;2024-03-08T05:36:43;0.80;99.90
54124;DHT22;55741;53.252;5.788;2024-03-08T05:39:12;0.80;99.90
54124;DHT22;55741;53.252;5.788;2024-03-08T05:41:39;0.70;99.90
54124;DHT22;55741;53.252;5.788;2024-03-08T05:44:07;0.70;99.90
54124;DHT22;55741;53.252;5.788;2024-03-08T05:46:35;0.70;99.90
54124;DHT22;55741;53.252;5.788;2024-03-08T05:49:06;0.70;99.90
54124;DHT22;55741;53.252;5.788;2024-03-08T05:51:34;0.70;99.90
54124;DHT22;55741;53.252;5.788;2024-03-08T05:54:05;0.70;99.90
54124;DHT22;55741;53.252;5.788;2024-03-08T05:56:32;0.70;99.90
54124;DHT22;55741;53.252;5.788;2024-03-08T05:59:00;0.60;99.90
54124;DHT22;55741;53.252;5.788;2024-03-08T06:01:28;0.60;99.90
54124;DHT22;55741;53.252;5.788;2024-03-08T06:03:56;0.70;99.90
54124;DHT22;55741;53.252;5.788;2024-03-08T06:06:24;0.60;99.90
54124;DHT22;55741;53.252;5.788;2024-03-08T06:08:51;0.60;99.90
54124;DHT22;55741;53.252;5.788;2024-03-08T06:11:19;0.60;99.90
54124;DHT22;55741;53.252;5.788;2024-03-08T06:13:49;0.60;99.90
54124;DHT22;55741;53.252;5.788;2024-03-08T06:16:16;0.60;99.90
54124;DHT22;55741;53.252;5.788;2024-03-08T06:18:43;0.60;99.90
54124;DHT22;55741;53.252;5.788;2024-03-08T06:21:12;0.60;99.90
54124;DHT22;55741;53.252;5.788;2024-03-08T06:23:39;0.60;99.90
54124;DHT22;55741;53.252;5.788;2024-03-08T06:26:09;0.60;99.90
54124;DHT22;55741;53.252;5.788;2024-03-08T06:28:36;0.60;99.90
54124;DHT22;55741;53.252;5.788;2024-03-08T06:31:03;0.60;99.90
54124;DHT22;55741;53.252;5.788;2024-03-08T06:33:31;0.60;99.90
54124;DHT22;55741;53.252;5.788;2024-03-08T06:35:59;0.60;99.90
54124;DHT22;55741;53.252;5.788;2024-03-08T06:38:26;0.60;99.90
54124;DHT22;55741;53.252;5.788;2024-03-08T06:40:53;0.70;99.90
54124;DHT22;55741;53.252;5.788;2024-03-08T06:43:21;0.70;99.90
54124;DHT22;55741;53.252;5.788;2024-03-08T06:45:48;0.60;99.90
54124;DHT22;55741;53.252;5.788;2024-03-08T06:48:16;0.70;99.90
54124;DHT22;55741;53.252;5.788;2024-03-08T06:50:47;0.70;99.90
54124;DHT22;55741;53.252;5.788;2024-03-08T06:53:15;0.70;99.90
54124;DHT22;55741;53.252;5.788;2024-03-08T06:55:42;0.70;99.90
54124;DHT22;55741;53.252;5.788;2024-03-08T06:58:09;0.70;99.90
54124;DHT22;55741;53.252;5.788;2024-03-08T07:00:37;0.80;99.90
54124;DHT22;55741;53.252;5.788;2024-03-08T07:03:08;0.80;99.90
54124;DHT22;55741;53.252;5.788;2024-03-08T07:05:38;0.80;99.90
54124;DHT22;55741;53.252;5.788;2024-03-08T07:08:07;0.80;99.90
54124;DHT22;55741;53.252;5.788;2024-03-08T07:10:34;0.90;99.90
54124;DHT22;55741;53.252;5.788;2024-03-08T07:13:01;0.90;99.90
54124;DHT22;55741;53.252;5.788;2024-03-08T07:15:29;0.90;99.90
54124;DHT22;55741;53.252;5.788;2024-03-08T07:17:56;1.00;99.90
54124;DHT22;55741;53.252;5.788;2024-03-08T07:20:23;1.10;99.90
54124;DHT22;55741;53.252;5.788;2024-03-08T07:22:51;1.10;99.90
54124;DHT22;55741;53.252;5.788;2024-03-08T07:25:19;1.20;99.90
54124;DHT22;55741;53.252;5.788;2024-03-08T07:27:54;1.30;99.90
54124;DHT22;55741;53.252;5.788;2024-03-08T07:30:27;1.40;99.90
54124;DHT22;55741;53.252;5.788;2024-03-08T07:33:12;1.60;99.90
54124;DHT22;55741;53.252;5.788;2024-03-08T07:35:40;1.70;99.90
54124;DHT22;55741;53.252;5.788;2024-03-08T07:38:08;1.80;99.90
54124;DHT22;55741;53.252;5.788;2024-03-08T07:40:40;2.00;99.90
54124;DHT22;55741;53.252;5.788;2024-03-08T07:43:11;2.10;99.90
54124;DHT22;55741;53.252;5.788;2024-03-08T07:45:38;2.20;99.90
54124;DHT22;55741;53.252;5.788;2024-03-08T07:48:06;2.40;99.90
54124;DHT22;55741;53.252;5.788;2024-03-08T07:50:40;2.50;99.90
54124;DHT22;55741;53.252;5.788;2024-03-08T07:53:07;2.60;99.90
54124;DHT22;55741;53.252;5.788;2024-03-08T07:55:35;2.70;99.90
54124;DHT22;55741;53.252;5.788;2024-03-08T07:58:03;2.80;99.90
54124;DHT22;55741;53.252;5.788;2024-03-08T08:00:30;3.00;99.90
54124;DHT22;55741;53.252;5.788;2024-03-08T08:03:00;3.10;99.90
54124;DHT22;55741;53.252;5.788;2024-03-08T08:05:28;3.20;99.90
54124;DHT22;55741;53.252;5.788;2024-03-08T08:07:55;3.30;99.90
54124;DHT22;55741;53.252;5.788;2024-03-08T08:10:22;3.40;99.90
54124;DHT22;55741;53.252;5.788;2024-03-08T08:12:51;3.50;99.90
54124;DHT22;55741;53.252;5.788;2024-03-08T08:15:18;3.60;99.90
54124;DHT22;55741;53.252;5.788;2024-03-08T08:17:46;3.70;99.90
54124;DHT22;55741;53.252;5.788;2024-03-08T08:20:13;3.80;99.90
54124;DHT22;55741;53.252;5.788;2024-03-08T08:22:41;3.80;99.90
54124;DHT22;55741;53.252;5.788;2024-03-08T08:25:10;3.90;99.90
54124;DHT22;55741;53.252;5.788;2024-03-08T08:27:42;4.00;99.90
54124;DHT22;55741;53.252;5.788;2024-03-08T08:30:12;4.10;99.90
54124;DHT22;55741;53.252;5.788;2024-03-08T08:32:40;4.10;99.90
54124;DHT22;55741;53.252;5.788;2024-03-08T08:35:09;4.20;99.90
54124;DHT22;55741;53.252;5.788;2024-03-08T08:37:39;4.30;99.90
54124;DHT22;55741;53.252;5.788;2024-03-08T08:40:07;4.30;99.90
54124;DHT22;55741;53.252;5.788;2024-03-08T08:42:41;4.40;99.90
54124;DHT22;55741;53.252;5.788;2024-03-08T08:45:08;4.40;99.90
54124;DHT22;55741;53.252;5.788;2024-03-08T08:47:36;4.50;99.90
54124;DHT22;55741;53.252;5.788;2024-03-08T08:50:04;4.50;99.90
54124;DHT22;55741;53.252;5.788;2024-03-08T08:52:32;4.50;99.90
54124;DHT22;55741;53.252;5.788;2024-03-08T08:54:59;4.60;99.90
54124;DHT22;55741;53.252;5.788;2024-03-08T08:57:27;4.60;99.90
54124;DHT22;55741;53.252;5.788;2024-03-08T08:59:54;4.70;99.90
54124;DHT22;55741;53.252;5.788;2024-03-08T09:02:25;4.70;99.90
54124;DHT22;55741;53.252;5.788;2024-03-08T09:04:52;4.70;99.90
54124;DHT22;55741;53.252;5.788;2024-03-08T09:07:19;4.70;99.90
54124;DHT22;55741;53.252;5.788;2024-03-08T09:09:46;4.70;99.90
54124;DHT22;55741;53.252;5.788;2024-03-08T09:12:13;4.70;99.90
54124;DHT22;55741;53.252;5.788;2024-03-08T09:14:41;4.80;99.90
54124;DHT22;55741;53.252;5.788;2024-03-08T09:17:08;4.80;99.90
54124;DHT22;55741;53.252;5.788;2024-03-08T09:19:36;4.80;99.90
54124;DHT22;55741;53.252;5.788;2024-03-08T09:22:04;4.80;99.90
54124;DHT22;55741;53.252;5.788;2024-03-08T09:24:31;4.80;99.90
54124;DHT22;55741;53.252;5.788;2024-03-08T09:27:00;4.80;99.90
54124;DHT22;55741;53.252;5.788;2024-03-08T09:29:27;4.90;99.90
54124;DHT22;55741;53.252;5.788;2024-03-08T09:31:55;4.90;99.90
54124;DHT22;55741;53.252;5.788;2024-03-08T09:34:22;5.00;99.90
54124;DHT22;55741;53.252;5.788;2024-03-08T09:36:50;5.00;99.90
54124;DHT22;55741;53.252;5.788;2024-03-08T09:39:19;5.00;99.90
54124;DHT22;55741;53.252;5.788;2024-03-08T09:41:47;5.10;99.90
54124;DHT22;55741;53.252;5.788;2024-03-08T09:44:17;5.20;99.90
54124;DHT22;55741;53.252;5.788;2024-03-08T09:46:46;5.20;99.90
54124;DHT22;55741;53.252;5.788;2024-03-08T09:49:14;5.20;99.90
54124;DHT22;55741;53.252;5.788;2024-03-08T09:51:41;5.20;99.90
54124;DHT22;55741;53.252;5.788;2024-03-08T09:54:08;5.30;99.90
54124;DHT22;55741;53.252;5.788;2024-03-08T09:56:36;5.30;99.90
54124;DHT22;55741;53.252;5.788;2024-03-08T09:59:03;5.40;99.90
54124;DHT22;55741;53.252;5.788;2024-03-08T10:01:49;5.40;99.90
54124;DHT22;55741;53.252;5.788;2024-03-08T10:04:17;5.50;99.90
54124;DHT22;55741;53.252;5.788;2024-03-08T10:06:45;5.60;99.90
54124;DHT22;55741;53.252;5.788;2024-03-08T10:09:14;5.70;99.90
54124;DHT22;55741;53.252;5.788;2024-03-08T10:11:42;5.70;99.90
54124;DHT22;55741;53.252;5.788;2024-03-08T10:14:09;5.80;99.90
54124;DHT22;55741;53.252;5.788;2024-03-08T10:16:40;5.90;99.90
54124;DHT22;55741;53.252;5.788;2024-03-08T10:19:07;6.00;99.90
54124;DHT22;55741;53.252;5.788;2024-03-08T10:21:46;6.10;99.90
54124;DHT22;55741;53.252;5.788;2024-03-08T10:24:14;6.20;99.90
54124;DHT22;55741;53.252;5.788;2024-03-08T10:26:41;6.30;99.90
54124;DHT22;55741;53.252;5.788;2024-03-08T10:29:13;6.30;99.90
54124;DHT22;55741;53.252;5.788;2024-03-08T10:31:45;6.50;99.90
54124;DHT22;55741;53.252;5.788;2024-03-08T10:34:12;6.50;99.90
54124;DHT22;55741;53.252;5.788;2024-03-08T10:36:41;6.60;99.90
54124;DHT22;55741;53.252;5.788;2024-03-08T10:39:21;6.70;99.90
54124;DHT22;55741;53.252;5.788;2024-03-08T10:42:12;6.80;99.90
54124;DHT22;55741;53.252;5.788;2024-03-08T10:45:03;6.80;99.90
54124;DHT22;55741;53.252;5.788;2024-03-08T10:47:35;6.90;99.90
54124;DHT22;55741;53.252;5.788;2024-03-08T10:52:32;7.00;99.90
54124;DHT22;55741;53.252;5.788;2024-03-08T10:55:01;7.10;99.90
54124;DHT22;55741;53.252;5.788;2024-03-08T10:57:29;7.20;99.90
54124;DHT22;55741;53.252;5.788;2024-03-08T10:59:56;7.40;99.90
54124;DHT22;55741;53.252;5.788;2024-03-08T11:02:25;7.40;99.90
54124;DHT22;55741;53.252;5.788;2024-03-08T11:04:54;7.50;99.90
54124;DHT22;55741;53.252;5.788;2024-03-08T11:07:23;7.60;99.90
54124;DHT22;55741;53.252;5.788;2024-03-08T11:09:54;7.60;99.90
54124;DHT22;55741;53.252;5.788;2024-03-08T11:12:27;7.70;99.90
54124;DHT22;55741;53.252;5.788;2024-03-08T11:15:00;7.80;99.90
54124;DHT22;55741;53.252;5.788;2024-03-08T11:20:19;8.00;99.90
54124;DHT22;55741;53.252;5.788;2024-03-08T11:22:59;8.10;99.90
54124;DHT22;55741;53.252;5.788;2024-03-08T11:25:39;8.20;99.90
54124;DHT22;55741;53.252;5.788;2024-03-08T11:28:19;8.20;99.90
54124;DHT22;55741;53.252;5.788;2024-03-08T11:33:29;8.40;99.90
54124;DHT22;55741;53.252;5.788;2024-03-08T11:38:49;8.50;99.90
54124;DHT22;55741;53.252;5.788;2024-03-08T11:41:19;8.50;99.90
54124;DHT22;55741;53.252;5.788;2024-03-08T11:43:48;8.50;99.90
54124;DHT22;55741;53.252;5.788;2024-03-08T11:46:16;8.60;99.90
54124;DHT22;55741;53.252;5.788;2024-03-08T11:48:44;8.60;99.90
54124;DHT22;55741;53.252;5.788;2024-03-08T11:51:15;8.70;99.90
54124;DHT22;55741;53.252;5.788;2024-03-08T11:53:42;8.80;99.90
54124;DHT22;55741;53.252;5.788;2024-03-08T11:56:13;8.90;99.90
54124;DHT22;55741;53.252;5.788;2024-03-08T11:58:40;9.00;99.90
54124;DHT22;55741;53.252;5.788;2024-03-08T12:01:09;9.10;99.90
54124;DHT22;55741;53.252;5.788;2024-03-08T12:03:39;9.10;99.90
54124;DHT22;55741;53.252;5.788;2024-03-08T12:06:10;9.20;99.90
54124;DHT22;55741;53.252;5.788;2024-03-08T12:08:37;9.20;99.90
54124;DHT22;55741;53.252;5.788;2024-03-08T12:11:04;9.30;99.90
54124;DHT22;55741;53.252;5.788;2024-03-08T12:13:33;9.30;99.90
54124;DHT22;55741;53.252;5.788;2024-03-08T12:16:02;9.40;99.90
54124;DHT22;55741;53.252;5.788;2024-03-08T12:18:36;9.40;99.90
54124;DHT22;55741;53.252;5.788;2024-03-08T12:21:06;9.40;99.90
54124;DHT22;55741;53.252;5.788;2024-03-08T12:23:38;9.50;99.90
54124;DHT22;55741;53.252;5.788;2024-03-08T12:28:43;9.50;99.90
54124;DHT22;55741;53.252;5.788;2024-03-08T12:31:13;9.60;99.90
54124;DHT22;55741;53.252;5.788;2024-03-08T12:33:50;9.70;99.90
54124;DHT22;55741;53.252;5.788;2024-03-08T12:36:19;9.70;99.90
54124;DHT22;55741;53.252;5.788;2024-03-08T12:38:47;9.80;99.90
54124;DHT22;55741;53.252;5.788;2024-03-08T12:41:18;9.90;99.90
54124;DHT22;55741;53.252;5.788;2024-03-08T12:43:46;9.90;99.90
54124;DHT22;55741;53.252;5.788;2024-03-08T12:46:19;9.90;99.90
54124;DHT22;55741;53.252;5.788;2024-03-08T12:48:48;9.90;99.90
54124;DHT22;55741;53.252;5.788;2024-03-08T12:51:19;10.00;99.90
54124;DHT22;55741;53.252;5.788;2024-03-08T12:53:47;9.90;99.90
54124;DHT22;55741;53.252;5.788;2024-03-08T12:56:29;9.90;99.90
54124;DHT22;55741;53.252;5.788;2024-03-08T12:58:56;10.00;99.90
54124;DHT22;55741;53.252;5.788;2024-03-08T13:01:23;10.00;99.90
54124;DHT22;55741;53.252;5.788;2024-03-08T13:03:50;10.10;99.90
54124;DHT22;55741;53.252;5.788;2024-03-08T13:06:17;10.10;99.90
54124;DHT22;55741;53.252;5.788;2024-03-08T13:08:46;10.10;99.90
54124;DHT22;55741;53.252;5.788;2024-03-08T13:11:14;10.10;99.90
54124;DHT22;55741;53.252;5.788;2024-03-08T13:13:41;10.20;99.90
54124;DHT22;55741;53.252;5.788;2024-03-08T13:16:09;10.20;99.90
54124;DHT22;55741;53.252;5.788;2024-03-08T13:18:36;10.20;99.90
54124;DHT22;55741;53.252;5.788;2024-03-08T13:21:04;10.20;99.90
54124;DHT22;55741;53.252;5.788;2024-03-08T13:23:34;10.20;99.90
54124;DHT22;55741;53.252;5.788;2024-03-08T13:26:07;10.20;99.90
54124;DHT22;55741;53.252;5.788;2024-03-08T13:28:34;10.10;99.90
54124;DHT22;55741;53.252;5.788;2024-03-08T13:31:04;10.10;99.90
54124;DHT22;55741;53.252;5.788;2024-03-08T13:33:38;10.10;99.90
54124;DHT22;55741;53.252;5.788;2024-03-08T13:36:06;10.00;99.90
54124;DHT22;55741;53.252;5.788;2024-03-08T13:38:45;10.00;99.90
54124;DHT22;55741;53.252;5.788;2024-03-08T13:41:14;9.90;99.90
54124;DHT22;55741;53.252;5.788;2024-03-08T13:43:46;9.90;99.90
54124;DHT22;55741;53.252;5.788;2024-03-08T13:46:13;9.80;99.90
54124;DHT22;55741;53.252;5.788;2024-03-08T13:48:40;9.80;99.90
54124;DHT22;55741;53.252;5.788;2024-03-08T13:51:08;9.80;99.90
54124;DHT22;55741;53.252;5.788;2024-03-08T13:53:38;9.80;99.90
54124;DHT22;55741;53.252;5.788;2024-03-08T13:56:05;9.80;99.90
54124;DHT22;55741;53.252;5.788;2024-03-08T13:58:33;9.70;99.90
54124;DHT22;55741;53.252;5.788;2024-03-08T14:01:00;9.60;99.90
54124;DHT22;55741;53.252;5.788;2024-03-08T14:03:30;9.60;99.90
54124;DHT22;55741;53.252;5.788;2024-03-08T14:05:57;9.50;99.90
54124;DHT22;55741;53.252;5.788;2024-03-08T14:08:24;9.50;99.90
54124;DHT22;55741;53.252;5.788;2024-03-08T14:10:51;9.50;99.90
54124;DHT22;55741;53.252;5.788;2024-03-08T14:13:20;9.50;99.90
54124;DHT22;55741;53.252;5.788;2024-03-08T14:15:48;9.50;99.90
54124;DHT22;55741;53.252;5.788;2024-03-08T14:18:15;9.40;99.90
54124;DHT22;55741;53.252;5.788;2024-03-08T14:20:42;9.40;99.90
54124;DHT22;55741;53.252;5.788;2024-03-08T14:23:09;9.30;99.90
54124;DHT22;55741;53.252;5.788;2024-03-08T14:25:37;9.30;99.90
54124;DHT22;55741;53.252;5.788;2024-03-08T14:28:04;9.20;99.90
54124;DHT22;55741;53.252;5.788;2024-03-08T14:30:34;9.20;99.90
54124;DHT22;55741;53.252;5.788;2024-03-08T14:33:02;9.10;99.90
54124;DHT22;55741;53.252;5.788;2024-03-08T14:35:31;9.10;99.90
54124;DHT22;55741;53.252;5.788;2024-03-08T14:37:58;9.00;99.90
54124;DHT22;55741;53.252;5.788;2024-03-08T14:40:27;9.00;99.90
54124;DHT22;55741;53.252;5.788;2024-03-08T14:42:54;9.00;99.90
54124;DHT22;55741;53.252;5.788;2024-03-08T14:45:22;9.00;99.90
54124;DHT22;55741;53.252;5.788;2024-03-08T14:47:51;8.90;99.90
54124;DHT22;55741;53.252;5.788;2024-03-08T14:50:20;9.00;99.90
54124;DHT22;55741;53.252;5.788;2024-03-08T14:52:47;8.90;99.90
54124;DHT22;55741;53.252;5.788;2024-03-08T14:55:15;8.90;99.90
54124;DHT22;55741;53.252;5.788;2024-03-08T14:57:42;8.80;99.90
54124;DHT22;55741;53.252;5.788;2024-03-08T15:00:13;8.80;99.90
54124;DHT22;55741;53.252;5.788;2024-03-08T15:02:59;8.90;99.90
54124;DHT22;55741;53.252;5.788;2024-03-08T15:05:26;8.80;99.90
54124;DHT22;55741;53.252;5.788;2024-03-08T15:07:59;8.70;99.90
54124;DHT22;55741;53.252;5.788;2024-03-08T15:10:27;8.70;99.90
54124;DHT22;55741;53.252;5.788;2024-03-08T15:12:55;8.70;99.90
54124;DHT22;55741;53.252;5.788;2024-03-08T15:15:25;8.70;99.90
54124;DHT22;55741;53.252;5.788;2024-03-08T15:17:53;8.70;99.90
54124;DHT22;55741;53.252;5.788;2024-03-08T15:20:24;8.70;99.90
54124;DHT22;55741;53.252;5.788;2024-03-08T15:22:52;8.60;99.90
54124;DHT22;55741;53.252;5.788;2024-03-08T15:25:22;8.70;99.90
54124;DHT22;55741;53.252;5.788;2024-03-08T15:27:53;8.60;99.90
54124;DHT22;55741;53.252;5.788;2024-03-08T15:30:21;8.60;99.90
54124;DHT22;55741;53.252;5.788;2024-03-08T15:32:55;8.50;99.90
54124;DHT22;55741;53.252;5.788;2024-03-08T15:35:23;8.50;99.90
54124;DHT22;55741;53.252;5.788;2024-03-08T15:37:54;8.50;99.90
54124;DHT22;55741;53.252;5.788;2024-03-08T15:40:25;8.40;99.90
54124;DHT22;55741;53.252;5.788;2024-03-08T15:45:22;8.40;99.90
54124;DHT22;55741;53.252;5.788;2024-03-08T15:47:53;8.40;99.90
54124;DHT22;55741;53.252;5.788;2024-03-08T15:50:21;8.30;99.90
54124;DHT22;55741;53.252;5.788;2024-03-08T15:52:51;8.30;99.90
54124;DHT22;55741;53.252;5.788;2024-03-08T15:55:20;8.20;99.90
54124;DHT22;55741;53.252;5.788;2024-03-08T15:57:52;8.20;99.90
54124;DHT22;55741;53.252;5.788;2024-03-08T16:00:20;8.10;99.90
54124;DHT22;55741;53.252;5.788;2024-03-08T16:03:04;8.10;99.90
54124;DHT22;55741;53.252;5.788;2024-03-08T16:05:38;8.00;99.90
54124;DHT22;55741;53.252;5.788;2024-03-08T16:08:08;8.00;99.90
54124;DHT22;55741;53.252;5.788;2024-03-08T16:10:49;8.00;99.90